sensor_id;sensor_type;location;lat;lon;timestamp;P1;durP1;ratioP1;P2;durP2;ratioP2
49578;SDS011;35483;50.828;3.228;2022-11-15T00:02:01;23.80;;;16.13;;
49578;SDS011;35483;50.828;3.228;2022-11-15T00:04:29;22.33;;;14.32;;
49578;SDS011;35483;50.828;3.228;2022-11-15T00:06:55;21.77;;;14.05;;
49578;SDS011;35483;50.828;3.228;2022-11-15T00:09:22;19.20;;;13.43;;
49578;SDS011;35483;50.828;3.228;2022-11-15T00:11:48;17.23;;;12.98;;
49578;SDS011;35483;50.828;3.228;2022-11-15T00:14:14;19.10;;;13.57;;
49578;SDS011;35483;50.828;3.228;2022-11-15T00:16:40;17.77;;;11.95;;
49578;SDS011;35483;50.828;3.228;2022-11-15T00:19:06;22.17;;;12.75;;
49578;SDS011;35483;50.828;3.228;2022-11-15T00:21:32;18.27;;;13.00;;
49578;SDS011;35483;50.828;3.228;2022-11-15T00:23:58;17.08;;;13.00;;
49578;SDS011;35483;50.828;3.228;2022-11-15T00:26:24;19.10;;;12.85;;
49578;SDS011;35483;50.828;3.228;2022-11-15T00:28:51;17.30;;;12.25;;
49578;SDS011;35483;50.828;3.228;2022-11-15T00:31:18;19.15;;;13.18;;
49578;SDS011;35483;50.828;3.228;2022-11-15T00:33:44;20.40;;;13.95;;
49578;SDS011;35483;50.828;3.228;2022-11-15T00:36:10;16.35;;;13.68;;
49578;SDS011;35483;50.828;3.228;2022-11-15T00:38:37;19.85;;;13.93;;
49578;SDS011;35483;50.828;3.228;2022-11-15T00:41:05;21.00;;;13.95;;
49578;SDS011;35483;50.828;3.228;2022-11-15T00:43:32;20.40;;;14.95;;
49578;SDS011;35483;50.828;3.228;2022-11-15T00:45:58;19.38;;;13.90;;
49578;SDS011;35483;50.828;3.228;2022-11-15T00:48:24;19.83;;;14.43;;
49578;SDS011;35483;50.828;3.228;2022-11-15T00:50:50;19.90;;;13.65;;
49578;SDS011;35483;50.828;3.228;2022-11-15T00:53:16;19.75;;;15.10;;
49578;SDS011;35483;50.828;3.228;2022-11-15T00:55:42;21.65;;;14.18;;
49578;SDS011;35483;50.828;3.228;2022-11-15T00:58:08;19.25;;;13.60;;
49578;SDS011;35483;50.828;3.228;2022-11-15T01:00:35;23.33;;;13.73;;
49578;SDS011;35483;50.828;3.228;2022-11-15T01:03:01;20.08;;;14.07;;
49578;SDS011;35483;50.828;3.228;2022-11-15T01:05:27;20.45;;;13.82;;
49578;SDS011;35483;50.828;3.228;2022-11-15T01:07:54;20.50;;;13.57;;
49578;SDS011;35483;50.828;3.228;2022-11-15T01:10:21;20.85;;;13.55;;
49578;SDS011;35483;50.828;3.228;2022-11-15T01:12:48;17.33;;;12.98;;
49578;SDS011;35483;50.828;3.228;2022-11-15T01:15:14;18.98;;;13.55;;
49578;SDS011;35483;50.828;3.228;2022-11-15T01:17:40;19.50;;;12.98;;
49578;SDS011;35483;50.828;3.228;2022-11-15T01:20:07;22.27;;;14.75;;
49578;SDS011;35483;50.828;3.228;2022-11-15T01:22:33;19.35;;;14.43;;
49578;SDS011;35483;50.828;3.228;2022-11-15T01:24:59;23.40;;;14.55;;
49578;SDS011;35483;50.828;3.228;2022-11-15T01:27:25;21.80;;;14.60;;
49578;SDS011;35483;50.828;3.228;2022-11-15T01:29:51;23.52;;;14.23;;
49578;SDS011;35483;50.828;3.228;2022-11-15T01:32:17;21.45;;;13.70;;
49578;SDS011;35483;50.828;3.228;2022-11-15T01:34:43;17.50;;;11.82;;
49578;SDS011;35483;50.828;3.228;2022-11-15T01:37:09;17.35;;;11.95;;
49578;SDS011;35483;50.828;3.228;2022-11-15T01:39:35;16.35;;;10.77;;
49578;SDS011;35483;50.828;3.228;2022-11-15T01:42:01;15.40;;;10.52;;
49578;SDS011;35483;50.828;3.228;2022-11-15T01:46:59;12.40;;;9.30;;
49578;SDS011;35483;50.828;3.228;2022-11-15T01:49:29;12.35;;;8.13;;
49578;SDS011;35483;50.828;3.228;2022-11-15T01:51:57;15.57;;;9.20;;
49578;SDS011;35483;50.828;3.228;2022-11-15T01:54:26;14.23;;;7.25;;
49578;SDS011;35483;50.828;3.228;2022-11-15T01:56:55;14.70;;;8.85;;
49578;SDS011;35483;50.828;3.228;2022-11-15T01:59:26;11.40;;;8.05;;
49578;SDS011;35483;50.828;3.228;2022-11-15T02:01:53;13.25;;;8.13;;
49578;SDS011;35483;50.828;3.228;2022-11-15T02:04:20;11.88;;;7.25;;
49578;SDS011;35483;50.828;3.228;2022-11-15T02:06:51;13.48;;;6.68;;
49578;SDS011;35483;50.828;3.228;2022-11-15T02:09:17;10.05;;;5.75;;
49578;SDS011;35483;50.828;3.228;2022-11-15T02:11:43;9.13;;;5.57;;
49578;SDS011;35483;50.828;3.228;2022-11-15T02:14:10;8.27;;;5.47;;
49578;SDS011;35483;50.828;3.228;2022-11-15T02:16:58;9.88;;;5.82;;
49578;SDS011;35483;50.828;3.228;2022-11-15T02:24:34;9.60;;;4.47;;
49578;SDS011;35483;50.828;3.228;2022-11-15T02:36:12;7.97;;;4.20;;
49578;SDS011;35483;50.828;3.228;2022-11-15T02:41:54;8.73;;;4.43;;
49578;SDS011;35483;50.828;3.228;2022-11-15T02:45:01;8.95;;;4.35;;
49578;SDS011;35483;50.828;3.228;2022-11-15T02:47:32;8.23;;;4.72;;
49578;SDS011;35483;50.828;3.228;2022-11-15T02:50:07;8.20;;;4.72;;
49578;SDS011;35483;50.828;3.228;2022-11-15T02:52:35;8.38;;;4.78;;
49578;SDS011;35483;50.828;3.228;2022-11-15T02:55:01;9.48;;;4.75;;
49578;SDS011;35483;50.828;3.228;2022-11-15T02:57:35;8.50;;;4.95;;
49578;SDS011;35483;50.828;3.228;2022-11-15T03:00:22;10.85;;;5.03;;
49578;SDS011;35483;50.828;3.228;2022-11-15T03:02:57;8.68;;;5.35;;
49578;SDS011;35483;50.828;3.228;2022-11-15T03:08:32;10.10;;;5.75;;
49578;SDS011;35483;50.828;3.228;2022-11-15T03:13:47;9.55;;;5.30;;
49578;SDS011;35483;50.828;3.228;2022-11-15T03:16:37;11.35;;;5.63;;
49578;SDS011;35483;50.828;3.228;2022-11-15T03:22:04;11.30;;;6.63;;
49578;SDS011;35483;50.828;3.228;2022-11-15T03:24:34;10.82;;;7.00;;
49578;SDS011;35483;50.828;3.228;2022-11-15T03:27:02;11.05;;;6.00;;
49578;SDS011;35483;50.828;3.228;2022-11-15T03:29:35;10.90;;;6.70;;
49578;SDS011;35483;50.828;3.228;2022-11-15T03:32:09;11.32;;;6.80;;
49578;SDS011;35483;50.828;3.228;2022-11-15T03:37:06;11.57;;;6.97;;
49578;SDS011;35483;50.828;3.228;2022-11-15T03:39:33;12.10;;;6.55;;
49578;SDS011;35483;50.828;3.228;2022-11-15T03:42:04;11.73;;;6.63;;
49578;SDS011;35483;50.828;3.228;2022-11-15T03:47:29;9.63;;;6.80;;
49578;SDS011;35483;50.828;3.228;2022-11-15T03:50:13;10.32;;;6.90;;
49578;SDS011;35483;50.828;3.228;2022-11-15T03:52:44;12.90;;;6.95;;
49578;SDS011;35483;50.828;3.228;2022-11-15T03:55:12;17.35;;;7.65;;
49578;SDS011;35483;50.828;3.228;2022-11-15T03:57:40;12.18;;;6.68;;
49578;SDS011;35483;50.828;3.228;2022-11-15T04:00:06;12.07;;;6.60;;
49578;SDS011;35483;50.828;3.228;2022-11-15T04:02:32;11.82;;;7.13;;
49578;SDS011;35483;50.828;3.228;2022-11-15T04:04:58;9.18;;;6.55;;
49578;SDS011;35483;50.828;3.228;2022-11-15T04:07:24;11.43;;;6.22;;
49578;SDS011;35483;50.828;3.228;2022-11-15T04:09:49;13.60;;;7.00;;
49578;SDS011;35483;50.828;3.228;2022-11-15T04:12:27;11.40;;;6.85;;
49578;SDS011;35483;50.828;3.228;2022-11-15T04:14:59;10.55;;;6.45;;
49578;SDS011;35483;50.828;3.228;2022-11-15T04:17:33;10.85;;;6.18;;
49578;SDS011;35483;50.828;3.228;2022-11-15T04:20:02;9.02;;;5.90;;
49578;SDS011;35483;50.828;3.228;2022-11-15T04:22:47;9.63;;;6.30;;
49578;SDS011;35483;50.828;3.228;2022-11-15T04:25:31;14.38;;;6.07;;
49578;SDS011;35483;50.828;3.228;2022-11-15T04:27:57;9.95;;;6.63;;
49578;SDS011;35483;50.828;3.228;2022-11-15T04:30:22;12.02;;;6.57;;
49578;SDS011;35483;50.828;3.228;2022-11-15T04:32:48;10.30;;;7.32;;
49578;SDS011;35483;50.828;3.228;2022-11-15T04:35:14;10.90;;;6.63;;
49578;SDS011;35483;50.828;3.228;2022-11-15T04:37:39;10.77;;;6.50;;
49578;SDS011;35483;50.828;3.228;2022-11-15T04:40:05;8.98;;;6.63;;
49578;SDS011;35483;50.828;3.228;2022-11-15T04:42:31;10.85;;;6.20;;
49578;SDS011;35483;50.828;3.228;2022-11-15T04:44:57;10.70;;;6.35;;
49578;SDS011;35483;50.828;3.228;2022-11-15T04:47:23;7.93;;;6.10;;
49578;SDS011;35483;50.828;3.228;2022-11-15T04:49:48;9.60;;;6.07;;
49578;SDS011;35483;50.828;3.228;2022-11-15T04:52:14;9.68;;;6.40;;
49578;SDS011;35483;50.828;3.228;2022-11-15T04:54:39;13.80;;;6.75;;
49578;SDS011;35483;50.828;3.228;2022-11-15T04:57:07;8.80;;;5.95;;
49578;SDS011;35483;50.828;3.228;2022-11-15T04:59:32;7.72;;;5.72;;
49578;SDS011;35483;50.828;3.228;2022-11-15T05:01:58;8.32;;;5.75;;
49578;SDS011;35483;50.828;3.228;2022-11-15T05:04:24;9.80;;;5.57;;
49578;SDS011;35483;50.828;3.228;2022-11-15T05:06:50;7.38;;;5.70;;
49578;SDS011;35483;50.828;3.228;2022-11-15T05:09:17;7.22;;;5.20;;
49578;SDS011;35483;50.828;3.228;2022-11-15T05:11:44;11.35;;;6.32;;
49578;SDS011;35483;50.828;3.228;2022-11-15T05:14:10;8.13;;;5.95;;
49578;SDS011;35483;50.828;3.228;2022-11-15T05:16:36;9.20;;;5.45;;
49578;SDS011;35483;50.828;3.228;2022-11-15T05:19:02;9.07;;;5.57;;
49578;SDS011;35483;50.828;3.228;2022-11-15T05:21:29;7.70;;;5.35;;
49578;SDS011;35483;50.828;3.228;2022-11-15T05:23:55;8.70;;;5.28;;
49578;SDS011;35483;50.828;3.228;2022-11-15T05:26:20;6.95;;;4.85;;
49578;SDS011;35483;50.828;3.228;2022-11-15T05:28:46;8.40;;;5.18;;
49578;SDS011;35483;50.828;3.228;2022-11-15T05:31:16;8.02;;;5.32;;
49578;SDS011;35483;50.828;3.228;2022-11-15T05:33:42;9.80;;;5.28;;
49578;SDS011;35483;50.828;3.228;2022-11-15T05:36:15;7.43;;;5.45;;
49578;SDS011;35483;50.828;3.228;2022-11-15T05:38:50;8.93;;;5.45;;
49578;SDS011;35483;50.828;3.228;2022-11-15T05:41:17;9.25;;;5.60;;
49578;SDS011;35483;50.828;3.228;2022-11-15T05:43:45;9.60;;;6.07;;
49578;SDS011;35483;50.828;3.228;2022-11-15T05:46:13;8.05;;;5.60;;
49578;SDS011;35483;50.828;3.228;2022-11-15T05:48:39;7.22;;;5.35;;
49578;SDS011;35483;50.828;3.228;2022-11-15T05:51:08;12.30;;;6.35;;
49578;SDS011;35483;50.828;3.228;2022-11-15T05:53:34;8.30;;;5.68;;
49578;SDS011;35483;50.828;3.228;2022-11-15T05:56:02;15.98;;;6.43;;
49578;SDS011;35483;50.828;3.228;2022-11-15T05:58:30;10.15;;;6.80;;
49578;SDS011;35483;50.828;3.228;2022-11-15T06:00:57;9.63;;;6.88;;
49578;SDS011;35483;50.828;3.228;2022-11-15T06:03:22;9.75;;;6.85;;
49578;SDS011;35483;50.828;3.228;2022-11-15T06:05:48;11.00;;;7.60;;
49578;SDS011;35483;50.828;3.228;2022-11-15T06:08:14;13.27;;;8.07;;
49578;SDS011;35483;50.828;3.228;2022-11-15T06:10:39;14.55;;;8.68;;
49578;SDS011;35483;50.828;3.228;2022-11-15T06:13:05;11.70;;;8.43;;
49578;SDS011;35483;50.828;3.228;2022-11-15T06:15:34;14.80;;;9.63;;
49578;SDS011;35483;50.828;3.228;2022-11-15T06:18:00;16.02;;;9.40;;
49578;SDS011;35483;50.828;3.228;2022-11-15T06:20:26;15.73;;;10.68;;
49578;SDS011;35483;50.828;3.228;2022-11-15T06:22:57;11.07;;;9.52;;
49578;SDS011;35483;50.828;3.228;2022-11-15T06:25:24;15.98;;;10.48;;
49578;SDS011;35483;50.828;3.228;2022-11-15T06:27:51;12.98;;;10.20;;
49578;SDS011;35483;50.828;3.228;2022-11-15T06:30:17;16.23;;;11.63;;
49578;SDS011;35483;50.828;3.228;2022-11-15T06:32:43;14.73;;;11.88;;
49578;SDS011;35483;50.828;3.228;2022-11-15T06:35:09;14.93;;;10.85;;
49578;SDS011;35483;50.828;3.228;2022-11-15T06:37:35;14.88;;;11.18;;
49578;SDS011;35483;50.828;3.228;2022-11-15T06:40:00;19.15;;;12.32;;
49578;SDS011;35483;50.828;3.228;2022-11-15T06:42:26;14.57;;;11.32;;
49578;SDS011;35483;50.828;3.228;2022-11-15T06:44:51;16.52;;;10.73;;
49578;SDS011;35483;50.828;3.228;2022-11-15T06:47:17;16.75;;;11.45;;
49578;SDS011;35483;50.828;3.228;2022-11-15T06:49:43;16.25;;;11.35;;
49578;SDS011;35483;50.828;3.228;2022-11-15T06:52:08;17.35;;;12.35;;
49578;SDS011;35483;50.828;3.228;2022-11-15T06:54:34;15.35;;;11.38;;
49578;SDS011;35483;50.828;3.228;2022-11-15T06:57:00;18.60;;;12.73;;
49578;SDS011;35483;50.828;3.228;2022-11-15T06:59:25;18.98;;;12.95;;
49578;SDS011;35483;50.828;3.228;2022-11-15T07:01:51;17.02;;;12.98;;
49578;SDS011;35483;50.828;3.228;2022-11-15T07:04:17;14.45;;;11.45;;
49578;SDS011;35483;50.828;3.228;2022-11-15T07:06:42;15.10;;;11.60;;
49578;SDS011;35483;50.828;3.228;2022-11-15T07:09:12;16.48;;;10.85;;
49578;SDS011;35483;50.828;3.228;2022-11-15T07:11:38;14.07;;;10.00;;
49578;SDS011;35483;50.828;3.228;2022-11-15T07:14:04;16.38;;;10.73;;
49578;SDS011;35483;50.828;3.228;2022-11-15T07:16:29;14.60;;;9.60;;
49578;SDS011;35483;50.828;3.228;2022-11-15T07:18:55;13.73;;;10.00;;
49578;SDS011;35483;50.828;3.228;2022-11-15T07:21:21;12.82;;;9.93;;
49578;SDS011;35483;50.828;3.228;2022-11-15T07:23:46;13.65;;;9.27;;
49578;SDS011;35483;50.828;3.228;2022-11-15T07:26:12;11.80;;;8.40;;
49578;SDS011;35483;50.828;3.228;2022-11-15T07:28:38;12.95;;;8.65;;
49578;SDS011;35483;50.828;3.228;2022-11-15T07:31:05;11.27;;;8.60;;
49578;SDS011;35483;50.828;3.228;2022-11-15T07:33:32;12.23;;;8.10;;
49578;SDS011;35483;50.828;3.228;2022-11-15T07:35:58;11.73;;;8.48;;
49578;SDS011;35483;50.828;3.228;2022-11-15T07:38:26;11.35;;;7.72;;
49578;SDS011;35483;50.828;3.228;2022-11-15T07:40:56;10.70;;;8.05;;
49578;SDS011;35483;50.828;3.228;2022-11-15T07:43:23;10.88;;;7.53;;
49578;SDS011;35483;50.828;3.228;2022-11-15T07:45:48;10.13;;;7.47;;
49578;SDS011;35483;50.828;3.228;2022-11-15T07:48:14;10.88;;;7.20;;
49578;SDS011;35483;50.828;3.228;2022-11-15T07:50:40;12.85;;;6.75;;
49578;SDS011;35483;50.828;3.228;2022-11-15T07:53:07;13.35;;;6.18;;
49578;SDS011;35483;50.828;3.228;2022-11-15T07:55:33;12.77;;;6.53;;
49578;SDS011;35483;50.828;3.228;2022-11-15T07:58:00;6.15;;;5.18;;
49578;SDS011;35483;50.828;3.228;2022-11-15T08:00:28;7.57;;;4.90;;
49578;SDS011;35483;50.828;3.228;2022-11-15T08:03:00;10.48;;;5.65;;
49578;SDS011;35483;50.828;3.228;2022-11-15T08:05:30;7.22;;;4.80;;
49578;SDS011;35483;50.828;3.228;2022-11-15T08:07:56;9.73;;;4.68;;
49578;SDS011;35483;50.828;3.228;2022-11-15T08:10:22;8.23;;;4.63;;
49578;SDS011;35483;50.828;3.228;2022-11-15T08:12:48;10.85;;;4.85;;
49578;SDS011;35483;50.828;3.228;2022-11-15T08:15:21;6.57;;;4.57;;
49578;SDS011;35483;50.828;3.228;2022-11-15T08:17:47;5.60;;;3.97;;
49578;SDS011;35483;50.828;3.228;2022-11-15T08:20:12;7.47;;;4.50;;
49578;SDS011;35483;50.828;3.228;2022-11-15T08:22:38;6.00;;;3.67;;
49578;SDS011;35483;50.828;3.228;2022-11-15T08:25:04;7.80;;;3.88;;
49578;SDS011;35483;50.828;3.228;2022-11-15T08:27:29;8.13;;;4.32;;
49578;SDS011;35483;50.828;3.228;2022-11-15T08:29:55;9.32;;;4.53;;
49578;SDS011;35483;50.828;3.228;2022-11-15T08:32:21;7.97;;;3.83;;
49578;SDS011;35483;50.828;3.228;2022-11-15T08:34:47;4.80;;;3.15;;
49578;SDS011;35483;50.828;3.228;2022-11-15T08:37:12;8.15;;;3.47;;
49578;SDS011;35483;50.828;3.228;2022-11-15T08:39:38;7.18;;;3.45;;
49578;SDS011;35483;50.828;3.228;2022-11-15T08:42:04;7.13;;;3.47;;
49578;SDS011;35483;50.828;3.228;2022-11-15T08:44:29;5.65;;;3.08;;
49578;SDS011;35483;50.828;3.228;2022-11-15T08:46:55;6.65;;;2.67;;
49578;SDS011;35483;50.828;3.228;2022-11-15T08:49:21;6.30;;;3.40;;
49578;SDS011;35483;50.828;3.228;2022-11-15T08:51:46;5.65;;;3.03;;
49578;SDS011;35483;50.828;3.228;2022-11-15T08:54:12;5.28;;;2.85;;
49578;SDS011;35483;50.828;3.228;2022-11-15T08:56:37;4.43;;;3.05;;
49578;SDS011;35483;50.828;3.228;2022-11-15T08:59:03;5.40;;;2.95;;
49578;SDS011;35483;50.828;3.228;2022-11-15T09:01:29;7.32;;;2.40;;
49578;SDS011;35483;50.828;3.228;2022-11-15T09:03:54;6.28;;;2.60;;
49578;SDS011;35483;50.828;3.228;2022-11-15T09:06:20;5.05;;;2.67;;
49578;SDS011;35483;50.828;3.228;2022-11-15T09:08:46;7.03;;;2.72;;
49578;SDS011;35483;50.828;3.228;2022-11-15T09:11:11;9.32;;;2.80;;
49578;SDS011;35483;50.828;3.228;2022-11-15T09:13:38;3.60;;;2.55;;
49578;SDS011;35483;50.828;3.228;2022-11-15T09:16:04;4.25;;;2.30;;
49578;SDS011;35483;50.828;3.228;2022-11-15T09:18:30;7.53;;;2.22;;
49578;SDS011;35483;50.828;3.228;2022-11-15T09:20:57;4.10;;;2.53;;
49578;SDS011;35483;50.828;3.228;2022-11-15T09:23:23;3.72;;;2.20;;
49578;SDS011;35483;50.828;3.228;2022-11-15T09:25:50;4.93;;;2.22;;
49578;SDS011;35483;50.828;3.228;2022-11-15T09:28:16;5.70;;;2.40;;
49578;SDS011;35483;50.828;3.228;2022-11-15T09:30:41;3.80;;;2.03;;
49578;SDS011;35483;50.828;3.228;2022-11-15T09:33:08;4.22;;;2.00;;
49578;SDS011;35483;50.828;3.228;2022-11-15T09:35:34;6.20;;;2.28;;
49578;SDS011;35483;50.828;3.228;2022-11-15T09:38:00;6.13;;;2.20;;
49578;SDS011;35483;50.828;3.228;2022-11-15T09:40:26;6.72;;;2.97;;
49578;SDS011;35483;50.828;3.228;2022-11-15T09:51:02;6.07;;;2.00;;
49578;SDS011;35483;50.828;3.228;2022-11-15T09:53:34;5.72;;;2.42;;
49578;SDS011;35483;50.828;3.228;2022-11-15T09:56:11;3.83;;;2.35;;
49578;SDS011;35483;50.828;3.228;2022-11-15T09:58:50;4.80;;;2.70;;
49578;SDS011;35483;50.828;3.228;2022-11-15T10:02:23;7.78;;;2.08;;
49578;SDS011;35483;50.828;3.228;2022-11-15T10:04:25;8.50;;;2.50;;
49578;SDS011;35483;50.828;3.228;2022-11-15T10:09:57;6.07;;;1.98;;
49578;SDS011;35483;50.828;3.228;2022-11-15T10:12:33;7.50;;;2.28;;
49578;SDS011;35483;50.828;3.228;2022-11-15T10:15:01;2.92;;;2.28;;
49578;SDS011;35483;50.828;3.228;2022-11-15T10:20:21;7.07;;;2.30;;
49578;SDS011;35483;50.828;3.228;2022-11-15T10:22:53;6.10;;;2.22;;
49578;SDS011;35483;50.828;3.228;2022-11-15T10:25:27;4.57;;;2.70;;
49578;SDS011;35483;50.828;3.228;2022-11-15T10:27:58;8.98;;;2.00;;
49578;SDS011;35483;50.828;3.228;2022-11-15T10:30:53;4.82;;;2.08;;
49578;SDS011;35483;50.828;3.228;2022-11-15T10:35:46;6.63;;;2.55;;
49578;SDS011;35483;50.828;3.228;2022-11-15T10:38:12;7.78;;;3.92;;
49578;SDS011;35483;50.828;3.228;2022-11-15T10:40:38;4.85;;;3.15;;
49578;SDS011;35483;50.828;3.228;2022-11-15T10:45:34;5.38;;;2.00;;
49578;SDS011;35483;50.828;3.228;2022-11-15T10:50:45;5.30;;;2.20;;
49578;SDS011;35483;50.828;3.228;2022-11-15T10:53:20;4.15;;;1.95;;
49578;SDS011;35483;50.828;3.228;2022-11-15T10:56:07;4.70;;;2.30;;
49578;SDS011;35483;50.828;3.228;2022-11-15T10:58:37;5.20;;;3.10;;
49578;SDS011;35483;50.828;3.228;2022-11-15T11:01:13;5.95;;;2.78;;
49578;SDS011;35483;50.828;3.228;2022-11-15T11:03:42;6.75;;;2.35;;
49578;SDS011;35483;50.828;3.228;2022-11-15T11:06:10;6.50;;;2.40;;
49578;SDS011;35483;50.828;3.228;2022-11-15T11:08:52;5.35;;;2.05;;
49578;SDS011;35483;50.828;3.228;2022-11-15T11:11:22;5.03;;;2.25;;
49578;SDS011;35483;50.828;3.228;2022-11-15T11:13:49;5.25;;;2.40;;
49578;SDS011;35483;50.828;3.228;2022-11-15T11:27:07;3.67;;;1.60;;
49578;SDS011;35483;50.828;3.228;2022-11-15T11:32:46;5.43;;;2.08;;
49578;SDS011;35483;50.828;3.228;2022-11-15T11:46:33;4.32;;;1.92;;
49578;SDS011;35483;50.828;3.228;2022-11-15T11:57:35;3.23;;;2.00;;
49578;SDS011;35483;50.828;3.228;2022-11-15T12:00:27;7.65;;;2.92;;
49578;SDS011;35483;50.828;3.228;2022-11-15T12:03:09;3.67;;;2.60;;
49578;SDS011;35483;50.828;3.228;2022-11-15T12:06:10;4.18;;;2.30;;
49578;SDS011;35483;50.828;3.228;2022-11-15T12:08:54;5.15;;;2.20;;
49578;SDS011;35483;50.828;3.228;2022-11-15T12:11:32;5.68;;;2.30;;
49578;SDS011;35483;50.828;3.228;2022-11-15T12:14:14;5.20;;;2.40;;
49578;SDS011;35483;50.828;3.228;2022-11-15T12:16:49;6.22;;;2.30;;
49578;SDS011;35483;50.828;3.228;2022-11-15T12:19:15;6.05;;;2.53;;
49578;SDS011;35483;50.828;3.228;2022-11-15T12:21:48;4.45;;;2.10;;
49578;SDS011;35483;50.828;3.228;2022-11-15T12:29:41;6.20;;;2.67;;
49578;SDS011;35483;50.828;3.228;2022-11-15T12:32:17;5.53;;;2.30;;
49578;SDS011;35483;50.828;3.228;2022-11-15T12:34:50;3.50;;;2.20;;
49578;SDS011;35483;50.828;3.228;2022-11-15T12:40:05;7.03;;;2.30;;
49578;SDS011;35483;50.828;3.228;2022-11-15T12:42:57;4.57;;;2.20;;
49578;SDS011;35483;50.828;3.228;2022-11-15T12:45:34;5.65;;;2.58;;
49578;SDS011;35483;50.828;3.228;2022-11-15T12:56:09;3.58;;;2.25;;
49578;SDS011;35483;50.828;3.228;2022-11-15T13:12:07;6.20;;;2.67;;
49578;SDS011;35483;50.828;3.228;2022-11-15T13:14:59;4.93;;;2.40;;
49578;SDS011;35483;50.828;3.228;2022-11-15T13:25:57;4.07;;;1.98;;
49578;SDS011;35483;50.828;3.228;2022-11-15T13:34:48;3.47;;;2.47;;
49578;SDS011;35483;50.828;3.228;2022-11-15T13:37:01;2.35;;;2.03;;
49578;SDS011;35483;50.828;3.228;2022-11-15T13:41:58;3.92;;;2.45;;
49578;SDS011;35483;50.828;3.228;2022-11-15T13:44:25;2.85;;;2.40;;
49578;SDS011;35483;50.828;3.228;2022-11-15T13:47:06;3.88;;;2.47;;
49578;SDS011;35483;50.828;3.228;2022-11-15T13:49:40;3.08;;;1.90;;
49578;SDS011;35483;50.828;3.228;2022-11-15T13:52:07;3.08;;;2.20;;
49578;SDS011;35483;50.828;3.228;2022-11-15T13:54:36;4.43;;;2.40;;
49578;SDS011;35483;50.828;3.228;2022-11-15T13:57:04;3.80;;;2.38;;
49578;SDS011;35483;50.828;3.228;2022-11-15T13:59:36;3.22;;;2.53;;
49578;SDS011;35483;50.828;3.228;2022-11-15T14:02:14;4.30;;;2.97;;
49578;SDS011;35483;50.828;3.228;2022-11-15T14:04:51;2.88;;;1.85;;
49578;SDS011;35483;50.828;3.228;2022-11-15T14:07:38;3.20;;;2.30;;
49578;SDS011;35483;50.828;3.228;2022-11-15T14:10:17;3.55;;;2.35;;
49578;SDS011;35483;50.828;3.228;2022-11-15T14:12:55;6.45;;;2.85;;
49578;SDS011;35483;50.828;3.228;2022-11-15T14:15:36;5.80;;;2.60;;
49578;SDS011;35483;50.828;3.228;2022-11-15T14:18:03;3.08;;;2.67;;
49578;SDS011;35483;50.828;3.228;2022-11-15T14:23:25;4.78;;;2.58;;
49578;SDS011;35483;50.828;3.228;2022-11-15T14:25:54;5.03;;;2.60;;
49578;SDS011;35483;50.828;3.228;2022-11-15T14:30:52;4.70;;;2.95;;
49578;SDS011;35483;50.828;3.228;2022-11-15T14:33:33;5.05;;;2.95;;
49578;SDS011;35483;50.828;3.228;2022-11-15T14:36:11;5.15;;;2.97;;
49578;SDS011;35483;50.828;3.228;2022-11-15T14:38:42;3.88;;;3.35;;
49578;SDS011;35483;50.828;3.228;2022-11-15T14:41:16;7.20;;;5.25;;
49578;SDS011;35483;50.828;3.228;2022-11-15T14:43:47;5.35;;;4.30;;
49578;SDS011;35483;50.828;3.228;2022-11-15T14:46:13;4.93;;;3.42;;
49578;SDS011;35483;50.828;3.228;2022-11-15T14:48:39;4.20;;;3.33;;
49578;SDS011;35483;50.828;3.228;2022-11-15T14:51:12;4.20;;;3.13;;
49578;SDS011;35483;50.828;3.228;2022-11-15T14:53:39;4.97;;;3.25;;
49578;SDS011;35483;50.828;3.228;2022-11-15T14:56:05;6.13;;;3.40;;
49578;SDS011;35483;50.828;3.228;2022-11-15T14:58:31;3.90;;;3.13;;
49578;SDS011;35483;50.828;3.228;2022-11-15T15:00:56;4.65;;;3.33;;
49578;SDS011;35483;50.828;3.228;2022-11-15T15:03:22;4.10;;;3.70;;
49578;SDS011;35483;50.828;3.228;2022-11-15T15:05:47;5.05;;;3.63;;
49578;SDS011;35483;50.828;3.228;2022-11-15T15:08:13;7.20;;;4.28;;
49578;SDS011;35483;50.828;3.228;2022-11-15T15:10:40;4.30;;;3.60;;
49578;SDS011;35483;50.828;3.228;2022-11-15T15:13:11;6.05;;;3.80;;
49578;SDS011;35483;50.828;3.228;2022-11-15T15:15:41;4.43;;;3.55;;
49578;SDS011;35483;50.828;3.228;2022-11-15T15:18:07;5.45;;;4.20;;
49578;SDS011;35483;50.828;3.228;2022-11-15T15:20:34;4.15;;;3.40;;
49578;SDS011;35483;50.828;3.228;2022-11-15T15:23:02;3.55;;;3.25;;
49578;SDS011;35483;50.828;3.228;2022-11-15T15:25:31;4.25;;;3.70;;
49578;SDS011;35483;50.828;3.228;2022-11-15T15:27:58;4.55;;;4.13;;
49578;SDS011;35483;50.828;3.228;2022-11-15T15:30:25;5.28;;;4.40;;
49578;SDS011;35483;50.828;3.228;2022-11-15T15:32:51;9.25;;;6.97;;
49578;SDS011;35483;50.828;3.228;2022-11-15T15:35:18;4.80;;;4.28;;
49578;SDS011;35483;50.828;3.228;2022-11-15T15:37:45;8.00;;;5.78;;
49578;SDS011;35483;50.828;3.228;2022-11-15T15:40:19;4.80;;;4.30;;
49578;SDS011;35483;50.828;3.228;2022-11-15T15:45:13;6.90;;;4.95;;
49578;SDS011;35483;50.828;3.228;2022-11-15T15:47:39;6.03;;;5.00;;
49578;SDS011;35483;50.828;3.228;2022-11-15T15:52:55;5.28;;;4.78;;
49578;SDS011;35483;50.828;3.228;2022-11-15T15:55:23;6.25;;;5.18;;
49578;SDS011;35483;50.828;3.228;2022-11-15T15:57:49;5.45;;;4.10;;
49578;SDS011;35483;50.828;3.228;2022-11-15T16:00:16;4.80;;;4.30;;
49578;SDS011;35483;50.828;3.228;2022-11-15T16:02:42;4.40;;;4.00;;
49578;SDS011;35483;50.828;3.228;2022-11-15T16:05:08;9.80;;;7.28;;
49578;SDS011;35483;50.828;3.228;2022-11-15T16:07:35;11.05;;;8.52;;
49578;SDS011;35483;50.828;3.228;2022-11-15T16:10:00;12.32;;;8.05;;
49578;SDS011;35483;50.828;3.228;2022-11-15T16:14:57;5.78;;;4.38;;
49578;SDS011;35483;50.828;3.228;2022-11-15T16:17:25;6.90;;;5.50;;
49578;SDS011;35483;50.828;3.228;2022-11-15T16:19:53;6.53;;;4.70;;
49578;SDS011;35483;50.828;3.228;2022-11-15T16:22:19;5.55;;;4.60;;
49578;SDS011;35483;50.828;3.228;2022-11-15T16:24:45;6.43;;;5.07;;
49578;SDS011;35483;50.828;3.228;2022-11-15T16:27:18;5.10;;;4.38;;
49578;SDS011;35483;50.828;3.228;2022-11-15T16:29:45;5.63;;;5.13;;
49578;SDS011;35483;50.828;3.228;2022-11-15T16:32:11;5.78;;;4.55;;
49578;SDS011;35483;50.828;3.228;2022-11-15T16:34:37;4.70;;;4.03;;
49578;SDS011;35483;50.828;3.228;2022-11-15T16:37:02;5.53;;;4.28;;
49578;SDS011;35483;50.828;3.228;2022-11-15T16:39:28;10.65;;;9.68;;
49578;SDS011;35483;50.828;3.228;2022-11-15T16:41:59;13.52;;;12.32;;
49578;SDS011;35483;50.828;3.228;2022-11-15T16:44:27;7.85;;;6.88;;
49578;SDS011;35483;50.828;3.228;2022-11-15T16:46:53;8.85;;;7.40;;
49578;SDS011;35483;50.828;3.228;2022-11-15T16:49:19;8.25;;;6.85;;
49578;SDS011;35483;50.828;3.228;2022-11-15T16:51:46;7.35;;;6.65;;
49578;SDS011;35483;50.828;3.228;2022-11-15T16:54:13;5.05;;;4.55;;
49578;SDS011;35483;50.828;3.228;2022-11-15T16:56:39;10.65;;;9.55;;
49578;SDS011;35483;50.828;3.228;2022-11-15T16:59:05;9.73;;;7.85;;
49578;SDS011;35483;50.828;3.228;2022-11-15T17:01:32;11.05;;;9.13;;
49578;SDS011;35483;50.828;3.228;2022-11-15T17:04:11;15.27;;;12.43;;
49578;SDS011;35483;50.828;3.228;2022-11-15T17:06:38;8.40;;;7.50;;
49578;SDS011;35483;50.828;3.228;2022-11-15T17:09:05;10.98;;;9.98;;
49578;SDS011;35483;50.828;3.228;2022-11-15T17:11:31;9.85;;;7.80;;
49578;SDS011;35483;50.828;3.228;2022-11-15T17:13:57;7.30;;;6.03;;
49578;SDS011;35483;50.828;3.228;2022-11-15T17:16:24;8.05;;;7.03;;
49578;SDS011;35483;50.828;3.228;2022-11-15T17:18:51;11.85;;;10.75;;
49578;SDS011;35483;50.828;3.228;2022-11-15T17:21:18;8.70;;;7.03;;